sensor_id;sensor_type;location;lat;lon;timestamp;P1;durP1;ratioP1;P2;durP2;ratioP2
55706;SDS011;41608;45.384;20.394;2023-04-25T00:00:46;29.08;;;20.92;;
55706;SDS011;41608;45.384;20.394;2023-04-25T00:03:12;25.98;;;20.17;;
55706;SDS011;41608;45.384;20.394;2023-04-25T00:05:38;24.23;;;19.83;;
55706;SDS011;41608;45.384;20.394;2023-04-25T00:08:05;28.02;;;19.92;;
55706;SDS011;41608;45.384;20.394;2023-04-25T00:10:31;23.08;;;19.27;;
55706;SDS011;41608;45.384;20.394;2023-04-25T00:12:57;25.40;;;17.17;;
55706;SDS011;41608;45.384;20.394;2023-04-25T00:15:23;19.85;;;16.35;;
55706;SDS011;41608;45.384;20.394;2023-04-25T00:17:51;20.02;;;16.30;;
55706;SDS011;41608;45.384;20.394;2023-04-25T00:20:18;20.67;;;15.93;;
55706;SDS011;41608;45.384;20.394;2023-04-25T00:22:44;18.60;;;16.08;;
55706;SDS011;41608;45.384;20.394;2023-04-25T00:25:10;21.20;;;16.92;;
55706;SDS011;41608;45.384;20.394;2023-04-25T00:27:36;21.17;;;16.95;;
55706;SDS011;41608;45.384;20.394;2023-04-25T00:30:04;23.13;;;17.23;;
55706;SDS011;41608;45.384;20.394;2023-04-25T00:32:35;24.50;;;17.38;;
55706;SDS011;41608;45.384;20.394;2023-04-25T00:35:02;21.42;;;17.50;;
55706;SDS011;41608;45.384;20.394;2023-04-25T00:37:28;21.15;;;16.02;;
55706;SDS011;41608;45.384;20.394;2023-04-25T00:39:54;22.30;;;17.33;;
55706;SDS011;41608;45.384;20.394;2023-04-25T00:42:21;24.45;;;17.83;;
55706;SDS011;41608;45.384;20.394;2023-04-25T00:44:47;24.25;;;18.15;;
55706;SDS011;41608;45.384;20.394;2023-04-25T00:47:14;18.02;;;15.98;;
55706;SDS011;41608;45.384;20.394;2023-04-25T00:49:40;23.00;;;17.58;;
55706;SDS011;41608;45.384;20.394;2023-04-25T00:52:07;22.35;;;17.65;;
55706;SDS011;41608;45.384;20.394;2023-04-25T00:54:33;27.25;;;19.02;;
55706;SDS011;41608;45.384;20.394;2023-04-25T00:56:59;24.65;;;20.17;;
55706;SDS011;41608;45.384;20.394;2023-04-25T00:59:26;26.20;;;19.98;;
55706;SDS011;41608;45.384;20.394;2023-04-25T01:01:54;27.75;;;22.25;;
55706;SDS011;41608;45.384;20.394;2023-04-25T01:04:23;34.47;;;21.05;;
55706;SDS011;41608;45.384;20.394;2023-04-25T01:06:49;32.70;;;22.80;;
55706;SDS011;41608;45.384;20.394;2023-04-25T01:09:15;32.85;;;24.13;;
55706;SDS011;41608;45.384;20.394;2023-04-25T01:11:41;27.58;;;22.02;;
55706;SDS011;41608;45.384;20.394;2023-04-25T01:14:07;31.77;;;23.75;;
55706;SDS011;41608;45.384;20.394;2023-04-25T01:16:33;29.88;;;23.67;;
55706;SDS011;41608;45.384;20.394;2023-04-25T01:19:00;32.50;;;23.75;;
55706;SDS011;41608;45.384;20.394;2023-04-25T01:21:26;36.20;;;27.13;;
55706;SDS011;41608;45.384;20.394;2023-04-25T01:23:54;35.38;;;27.20;;
55706;SDS011;41608;45.384;20.394;2023-04-25T01:26:20;36.42;;;27.02;;
55706;SDS011;41608;45.384;20.394;2023-04-25T01:28:47;38.03;;;27.75;;
55706;SDS011;41608;45.384;20.394;2023-04-25T01:31:13;40.20;;;28.23;;
55706;SDS011;41608;45.384;20.394;2023-04-25T01:33:42;41.92;;;28.77;;
55706;SDS011;41608;45.384;20.394;2023-04-25T01:36:08;37.88;;;27.42;;
55706;SDS011;41608;45.384;20.394;2023-04-25T01:38:37;36.38;;;27.63;;
55706;SDS011;41608;45.384;20.394;2023-04-25T01:41:03;39.88;;;29.77;;
55706;SDS011;41608;45.384;20.394;2023-04-25T01:43:32;46.95;;;33.50;;
55706;SDS011;41608;45.384;20.394;2023-04-25T01:45:58;44.10;;;32.92;;
55706;SDS011;41608;45.384;20.394;2023-04-25T01:48:24;41.78;;;31.67;;
55706;SDS011;41608;45.384;20.394;2023-04-25T01:50:50;47.95;;;35.25;;
55706;SDS011;41608;45.384;20.394;2023-04-25T01:53:16;45.53;;;34.15;;
55706;SDS011;41608;45.384;20.394;2023-04-25T01:55:43;50.00;;;34.08;;
55706;SDS011;41608;45.384;20.394;2023-04-25T01:58:09;49.85;;;34.38;;
55706;SDS011;41608;45.384;20.394;2023-04-25T02:00:37;49.20;;;36.15;;
55706;SDS011;41608;45.384;20.394;2023-04-25T02:03:04;45.85;;;35.30;;
55706;SDS011;41608;45.384;20.394;2023-04-25T02:05:34;46.70;;;33.00;;
55706;SDS011;41608;45.384;20.394;2023-04-25T02:08:01;48.90;;;35.60;;
55706;SDS011;41608;45.384;20.394;2023-04-25T02:10:28;48.72;;;36.28;;
55706;SDS011;41608;45.384;20.394;2023-04-25T02:12:54;51.90;;;36.83;;
55706;SDS011;41608;45.384;20.394;2023-04-25T02:15:20;54.22;;;39.08;;
55706;SDS011;41608;45.384;20.394;2023-04-25T02:17:46;58.22;;;37.70;;
55706;SDS011;41608;45.384;20.394;2023-04-25T02:20:13;51.45;;;37.45;;
55706;SDS011;41608;45.384;20.394;2023-04-25T02:22:41;51.13;;;36.40;;
55706;SDS011;41608;45.384;20.394;2023-04-25T02:25:07;54.33;;;36.75;;
55706;SDS011;41608;45.384;20.394;2023-04-25T02:27:34;47.70;;;34.35;;
55706;SDS011;41608;45.384;20.394;2023-04-25T02:30:00;49.92;;;34.13;;
55706;SDS011;41608;45.384;20.394;2023-04-25T02:32:26;49.65;;;33.22;;
55706;SDS011;41608;45.384;20.394;2023-04-25T02:34:52;45.88;;;32.83;;
55706;SDS011;41608;45.384;20.394;2023-04-25T02:37:19;51.35;;;34.38;;
55706;SDS011;41608;45.384;20.394;2023-04-25T02:39:45;42.50;;;29.90;;
55706;SDS011;41608;45.384;20.394;2023-04-25T02:42:11;43.38;;;30.55;;
55706;SDS011;41608;45.384;20.394;2023-04-25T02:44:37;40.65;;;30.10;;
55706;SDS011;41608;45.384;20.394;2023-04-25T02:47:03;40.45;;;31.25;;
55706;SDS011;41608;45.384;20.394;2023-04-25T02:49:29;43.72;;;30.42;;
55706;SDS011;41608;45.384;20.394;2023-04-25T02:51:55;43.78;;;31.02;;
55706;SDS011;41608;45.384;20.394;2023-04-25T02:54:22;45.35;;;32.15;;
55706;SDS011;41608;45.384;20.394;2023-04-25T02:56:48;39.72;;;29.08;;
55706;SDS011;41608;45.384;20.394;2023-04-25T02:59:14;42.10;;;30.40;;
55706;SDS011;41608;45.384;20.394;2023-04-25T03:01:40;45.97;;;32.78;;
55706;SDS011;41608;45.384;20.394;2023-04-25T03:04:06;43.28;;;30.73;;
55706;SDS011;41608;45.384;20.394;2023-04-25T03:06:32;44.35;;;32.33;;
55706;SDS011;41608;45.384;20.394;2023-04-25T03:08:58;42.88;;;31.70;;
55706;SDS011;41608;45.384;20.394;2023-04-25T03:11:25;44.92;;;29.80;;
55706;SDS011;41608;45.384;20.394;2023-04-25T03:13:51;47.28;;;30.77;;
55706;SDS011;41608;45.384;20.394;2023-04-25T03:16:17;39.67;;;30.70;;
55706;SDS011;41608;45.384;20.394;2023-04-25T03:18:43;41.95;;;29.00;;
55706;SDS011;41608;45.384;20.394;2023-04-25T03:21:09;36.75;;;27.40;;
55706;SDS011;41608;45.384;20.394;2023-04-25T03:23:35;40.95;;;28.42;;
55706;SDS011;41608;45.384;20.394;2023-04-25T03:26:02;30.73;;;25.52;;
55706;SDS011;41608;45.384;20.394;2023-04-25T03:28:30;36.47;;;26.63;;
55706;SDS011;41608;45.384;20.394;2023-04-25T03:30:56;35.80;;;27.35;;
55706;SDS011;41608;45.384;20.394;2023-04-25T03:33:22;31.70;;;24.35;;
55706;SDS011;41608;45.384;20.394;2023-04-25T03:35:48;31.67;;;23.80;;
55706;SDS011;41608;45.384;20.394;2023-04-25T03:38:15;34.63;;;24.48;;
55706;SDS011;41608;45.384;20.394;2023-04-25T03:40:41;31.63;;;24.95;;
55706;SDS011;41608;45.384;20.394;2023-04-25T03:43:07;33.90;;;26.80;;
55706;SDS011;41608;45.384;20.394;2023-04-25T03:45:33;36.45;;;27.38;;
55706;SDS011;41608;45.384;20.394;2023-04-25T03:47:59;34.20;;;26.00;;
55706;SDS011;41608;45.384;20.394;2023-04-25T03:50:25;34.03;;;24.90;;
55706;SDS011;41608;45.384;20.394;2023-04-25T03:52:51;32.58;;;23.98;;
55706;SDS011;41608;45.384;20.394;2023-04-25T03:55:17;25.38;;;19.13;;
55706;SDS011;41608;45.384;20.394;2023-04-25T03:57:43;23.20;;;18.38;;
55706;SDS011;41608;45.384;20.394;2023-04-25T04:00:12;22.95;;;17.02;;
55706;SDS011;41608;45.384;20.394;2023-04-25T04:02:39;24.50;;;14.93;;
55706;SDS011;41608;45.384;20.394;2023-04-25T04:05:05;18.05;;;12.13;;
55706;SDS011;41608;45.384;20.394;2023-04-25T04:07:31;18.42;;;13.50;;
55706;SDS011;41608;45.384;20.394;2023-04-25T04:09:58;15.90;;;12.98;;
55706;SDS011;41608;45.384;20.394;2023-04-25T04:12:24;17.58;;;13.98;;
55706;SDS011;41608;45.384;20.394;2023-04-25T04:14:50;16.20;;;12.93;;
55706;SDS011;41608;45.384;20.394;2023-04-25T04:17:16;17.65;;;13.32;;
55706;SDS011;41608;45.384;20.394;2023-04-25T04:19:42;15.45;;;11.57;;
55706;SDS011;41608;45.384;20.394;2023-04-25T04:22:09;18.85;;;13.05;;
55706;SDS011;41608;45.384;20.394;2023-04-25T04:24:35;18.42;;;14.02;;
55706;SDS011;41608;45.384;20.394;2023-04-25T04:27:01;16.83;;;12.00;;
55706;SDS011;41608;45.384;20.394;2023-04-25T04:29:28;16.88;;;11.80;;
55706;SDS011;41608;45.384;20.394;2023-04-25T04:31:54;14.00;;;10.75;;
55706;SDS011;41608;45.384;20.394;2023-04-25T04:34:20;14.32;;;10.35;;
55706;SDS011;41608;45.384;20.394;2023-04-25T04:36:46;14.80;;;9.93;;
55706;SDS011;41608;45.384;20.394;2023-04-25T04:39:13;12.23;;;9.68;;
55706;SDS011;41608;45.384;20.394;2023-04-25T04:41:39;11.07;;;8.57;;
55706;SDS011;41608;45.384;20.394;2023-04-25T04:44:05;10.35;;;8.57;;
55706;SDS011;41608;45.384;20.394;2023-04-25T04:46:35;9.68;;;7.93;;
55706;SDS011;41608;45.384;20.394;2023-04-25T04:49:06;11.77;;;9.80;;
55706;SDS011;41608;45.384;20.394;2023-04-25T04:51:33;10.73;;;9.07;;
55706;SDS011;41608;45.384;20.394;2023-04-25T04:53:59;11.57;;;8.73;;
55706;SDS011;41608;45.384;20.394;2023-04-25T04:56:27;10.32;;;9.23;;
55706;SDS011;41608;45.384;20.394;2023-04-25T04:58:56;10.80;;;8.38;;
55706;SDS011;41608;45.384;20.394;2023-04-25T05:01:22;11.75;;;9.40;;
55706;SDS011;41608;45.384;20.394;2023-04-25T05:03:48;9.75;;;8.18;;
55706;SDS011;41608;45.384;20.394;2023-04-25T05:06:16;11.63;;;8.60;;
55706;SDS011;41608;45.384;20.394;2023-04-25T05:08:42;12.15;;;9.10;;
55706;SDS011;41608;45.384;20.394;2023-04-25T05:11:08;12.98;;;9.68;;
55706;SDS011;41608;45.384;20.394;2023-04-25T05:13:37;9.63;;;8.13;;
55706;SDS011;41608;45.384;20.394;2023-04-25T05:16:03;11.00;;;9.20;;
55706;SDS011;41608;45.384;20.394;2023-04-25T05:18:29;11.25;;;9.45;;
55706;SDS011;41608;45.384;20.394;2023-04-25T05:20:55;11.43;;;9.27;;
55706;SDS011;41608;45.384;20.394;2023-04-25T05:23:21;9.63;;;8.23;;
55706;SDS011;41608;45.384;20.394;2023-04-25T05:25:47;9.23;;;7.57;;
55706;SDS011;41608;45.384;20.394;2023-04-25T05:28:13;10.18;;;8.18;;
55706;SDS011;41608;45.384;20.394;2023-04-25T05:30:39;10.07;;;7.95;;
55706;SDS011;41608;45.384;20.394;2023-04-25T05:33:06;10.68;;;7.75;;
55706;SDS011;41608;45.384;20.394;2023-04-25T05:35:32;7.18;;;6.47;;
55706;SDS011;41608;45.384;20.394;2023-04-25T05:37:58;8.82;;;7.82;;
55706;SDS011;41608;45.384;20.394;2023-04-25T05:40:24;11.95;;;8.25;;
55706;SDS011;41608;45.384;20.394;2023-04-25T05:42:53;8.88;;;7.00;;
55706;SDS011;41608;45.384;20.394;2023-04-25T05:45:19;9.95;;;6.35;;
55706;SDS011;41608;45.384;20.394;2023-04-25T05:47:45;8.55;;;7.43;;
55706;SDS011;41608;45.384;20.394;2023-04-25T05:50:11;12.05;;;7.10;;
55706;SDS011;41608;45.384;20.394;2023-04-25T05:52:37;9.15;;;6.63;;
55706;SDS011;41608;45.384;20.394;2023-04-25T05:55:03;8.88;;;7.10;;
55706;SDS011;41608;45.384;20.394;2023-04-25T05:57:30;8.48;;;6.78;;
55706;SDS011;41608;45.384;20.394;2023-04-25T05:59:56;9.77;;;6.90;;
55706;SDS011;41608;45.384;20.394;2023-04-25T06:02:22;9.18;;;6.40;;
55706;SDS011;41608;45.384;20.394;2023-04-25T06:04:51;7.38;;;6.60;;
55706;SDS011;41608;45.384;20.394;2023-04-25T06:07:18;10.43;;;6.68;;
55706;SDS011;41608;45.384;20.394;2023-04-25T06:09:45;11.13;;;7.18;;
55706;SDS011;41608;45.384;20.394;2023-04-25T06:12:11;8.35;;;7.22;;
55706;SDS011;41608;45.384;20.394;2023-04-25T06:14:37;8.77;;;6.45;;
55706;SDS011;41608;45.384;20.394;2023-04-25T06:17:03;8.93;;;7.00;;
55706;SDS011;41608;45.384;20.394;2023-04-25T06:19:33;10.27;;;6.57;;
55706;SDS011;41608;45.384;20.394;2023-04-25T06:21:59;11.32;;;9.93;;
55706;SDS011;41608;45.384;20.394;2023-04-25T06:24:26;7.25;;;6.13;;
55706;SDS011;41608;45.384;20.394;2023-04-25T06:26:52;8.38;;;6.30;;
55706;SDS011;41608;45.384;20.394;2023-04-25T06:29:20;12.40;;;6.50;;
55706;SDS011;41608;45.384;20.394;2023-04-25T06:31:46;8.43;;;6.93;;
55706;SDS011;41608;45.384;20.394;2023-04-25T06:34:12;10.85;;;7.10;;
55706;SDS011;41608;45.384;20.394;2023-04-25T06:36:41;7.95;;;7.15;;
55706;SDS011;41608;45.384;20.394;2023-04-25T06:39:09;10.05;;;7.03;;
55706;SDS011;41608;45.384;20.394;2023-04-25T06:41:37;8.27;;;5.80;;
55706;SDS011;41608;45.384;20.394;2023-04-25T06:44:03;10.90;;;6.82;;
55706;SDS011;41608;45.384;20.394;2023-04-25T06:46:32;11.18;;;6.30;;
55706;SDS011;41608;45.384;20.394;2023-04-25T06:48:58;7.35;;;5.38;;
55706;SDS011;41608;45.384;20.394;2023-04-25T06:51:26;7.65;;;6.82;;
55706;SDS011;41608;45.384;20.394;2023-04-25T06:53:54;6.75;;;6.03;;
55706;SDS011;41608;45.384;20.394;2023-04-25T06:56:21;7.88;;;5.63;;
55706;SDS011;41608;45.384;20.394;2023-04-25T06:58:49;8.20;;;5.78;;
55706;SDS011;41608;45.384;20.394;2023-04-25T07:01:15;8.35;;;6.00;;
55706;SDS011;41608;45.384;20.394;2023-04-25T07:03:41;6.93;;;6.10;;
55706;SDS011;41608;45.384;20.394;2023-04-25T07:06:08;8.13;;;5.40;;
55706;SDS011;41608;45.384;20.394;2023-04-25T07:08:34;7.63;;;5.90;;
55706;SDS011;41608;45.384;20.394;2023-04-25T07:11:00;8.13;;;5.50;;
55706;SDS011;41608;45.384;20.394;2023-04-25T07:13:26;10.05;;;6.45;;
55706;SDS011;41608;45.384;20.394;2023-04-25T07:15:52;8.02;;;5.72;;
55706;SDS011;41608;45.384;20.394;2023-04-25T07:18:18;7.30;;;6.03;;
55706;SDS011;41608;45.384;20.394;2023-04-25T07:20:44;8.27;;;6.13;;
55706;SDS011;41608;45.384;20.394;2023-04-25T07:23:10;7.05;;;5.90;;
55706;SDS011;41608;45.384;20.394;2023-04-25T07:25:36;9.57;;;5.90;;
55706;SDS011;41608;45.384;20.394;2023-04-25T07:28:03;7.82;;;6.20;;
55706;SDS011;41608;45.384;20.394;2023-04-25T07:30:29;8.18;;;5.97;;
55706;SDS011;41608;45.384;20.394;2023-04-25T07:32:56;9.32;;;5.28;;
55706;SDS011;41608;45.384;20.394;2023-04-25T07:35:26;8.57;;;5.30;;
55706;SDS011;41608;45.384;20.394;2023-04-25T07:37:52;10.38;;;6.57;;
55706;SDS011;41608;45.384;20.394;2023-04-25T07:40:18;6.95;;;5.25;;
55706;SDS011;41608;45.384;20.394;2023-04-25T07:42:45;10.65;;;6.22;;
55706;SDS011;41608;45.384;20.394;2023-04-25T07:45:11;8.32;;;6.13;;
55706;SDS011;41608;45.384;20.394;2023-04-25T07:47:37;12.07;;;7.15;;
55706;SDS011;41608;45.384;20.394;2023-04-25T07:50:03;7.90;;;5.60;;
55706;SDS011;41608;45.384;20.394;2023-04-25T07:52:30;6.32;;;5.00;;
55706;SDS011;41608;45.384;20.394;2023-04-25T07:54:57;8.15;;;6.35;;
55706;SDS011;41608;45.384;20.394;2023-04-25T07:57:25;7.88;;;5.45;;
55706;SDS011;41608;45.384;20.394;2023-04-25T07:59:51;12.23;;;5.97;;
55706;SDS011;41608;45.384;20.394;2023-04-25T08:02:17;5.55;;;4.85;;
55706;SDS011;41608;45.384;20.394;2023-04-25T08:04:43;9.10;;;5.30;;
55706;SDS011;41608;45.384;20.394;2023-04-25T08:07:09;6.30;;;4.63;;
55706;SDS011;41608;45.384;20.394;2023-04-25T08:09:38;6.93;;;5.68;;
55706;SDS011;41608;45.384;20.394;2023-04-25T08:12:04;6.40;;;4.40;;
55706;SDS011;41608;45.384;20.394;2023-04-25T08:14:31;5.63;;;4.63;;
55706;SDS011;41608;45.384;20.394;2023-04-25T08:17:01;8.77;;;4.82;;
55706;SDS011;41608;45.384;20.394;2023-04-25T08:19:28;4.93;;;4.43;;
55706;SDS011;41608;45.384;20.394;2023-04-25T08:21:55;6.30;;;5.00;;
55706;SDS011;41608;45.384;20.394;2023-04-25T08:24:22;6.85;;;5.10;;
55706;SDS011;41608;45.384;20.394;2023-04-25T08:26:48;6.10;;;4.43;;
55706;SDS011;41608;45.384;20.394;2023-04-25T08:29:15;5.20;;;4.28;;
55706;SDS011;41608;45.384;20.394;2023-04-25T08:31:41;7.03;;;4.93;;
55706;SDS011;41608;45.384;20.394;2023-04-25T08:34:07;6.72;;;4.70;;
55706;SDS011;41608;45.384;20.394;2023-04-25T08:36:33;5.07;;;4.10;;
55706;SDS011;41608;45.384;20.394;2023-04-25T08:38:59;6.00;;;4.63;;
55706;SDS011;41608;45.384;20.394;2023-04-25T08:41:25;5.82;;;4.88;;
55706;SDS011;41608;45.384;20.394;2023-04-25T08:43:52;6.40;;;5.35;;
55706;SDS011;41608;45.384;20.394;2023-04-25T08:46:19;7.10;;;5.25;;
55706;SDS011;41608;45.384;20.394;2023-04-25T08:48:52;6.78;;;5.13;;
55706;SDS011;41608;45.384;20.394;2023-04-25T08:51:22;5.20;;;4.57;;
55706;SDS011;41608;45.384;20.394;2023-04-25T08:53:53;7.72;;;3.97;;
55706;SDS011;41608;45.384;20.394;2023-04-25T08:56:21;5.10;;;3.78;;
55706;SDS011;41608;45.384;20.394;2023-04-25T08:58:48;6.88;;;4.03;;
55706;SDS011;41608;45.384;20.394;2023-04-25T09:01:17;5.90;;;4.25;;
55706;SDS011;41608;45.384;20.394;2023-04-25T09:03:46;8.20;;;4.05;;
55706;SDS011;41608;45.384;20.394;2023-04-25T09:06:14;6.57;;;3.65;;
55706;SDS011;41608;45.384;20.394;2023-04-25T09:08:42;6.93;;;4.30;;
55706;SDS011;41608;45.384;20.394;2023-04-25T09:11:12;9.50;;;4.95;;
55706;SDS011;41608;45.384;20.394;2023-04-25T09:13:39;7.65;;;4.50;;
55706;SDS011;41608;45.384;20.394;2023-04-25T09:16:05;5.85;;;4.00;;
55706;SDS011;41608;45.384;20.394;2023-04-25T09:18:32;6.15;;;3.60;;
55706;SDS011;41608;45.384;20.394;2023-04-25T09:21:05;6.25;;;3.97;;
55706;SDS011;41608;45.384;20.394;2023-04-25T09:23:38;6.75;;;4.13;;
55706;SDS011;41608;45.384;20.394;2023-04-25T09:26:05;5.05;;;3.88;;
55706;SDS011;41608;45.384;20.394;2023-04-25T09:28:32;6.13;;;4.20;;
55706;SDS011;41608;45.384;20.394;2023-04-25T09:31:00;7.88;;;4.43;;
55706;SDS011;41608;45.384;20.394;2023-04-25T09:33:30;6.85;;;4.03;;
55706;SDS011;41608;45.384;20.394;2023-04-25T09:36:01;7.30;;;3.92;;
55706;SDS011;41608;45.384;20.394;2023-04-25T09:38:30;4.88;;;3.58;;
55706;SDS011;41608;45.384;20.394;2023-04-25T09:40:56;5.68;;;3.50;;
55706;SDS011;41608;45.384;20.394;2023-04-25T09:43:22;4.15;;;3.50;;
55706;SDS011;41608;45.384;20.394;2023-04-25T09:45:49;5.75;;;3.97;;
55706;SDS011;41608;45.384;20.394;2023-04-25T09:48:19;5.47;;;3.85;;
55706;SDS011;41608;45.384;20.394;2023-04-25T09:50:46;7.00;;;4.28;;
55706;SDS011;41608;45.384;20.394;2023-04-25T09:53:29;6.78;;;4.45;;
55706;SDS011;41608;45.384;20.394;2023-04-25T09:55:57;5.72;;;3.58;;
55706;SDS011;41608;45.384;20.394;2023-04-25T09:58:25;5.40;;;4.75;;
55706;SDS011;41608;45.384;20.394;2023-04-25T10:00:56;7.78;;;4.28;;
55706;SDS011;41608;45.384;20.394;2023-04-25T10:03:25;6.15;;;3.35;;
55706;SDS011;41608;45.384;20.394;2023-04-25T10:05:52;7.20;;;3.75;;
55706;SDS011;41608;45.384;20.394;2023-04-25T10:08:18;4.75;;;3.25;;
55706;SDS011;41608;45.384;20.394;2023-04-25T10:10:46;5.82;;;3.90;;
55706;SDS011;41608;45.384;20.394;2023-04-25T10:13:12;5.60;;;3.70;;
55706;SDS011;41608;45.384;20.394;2023-04-25T10:15:42;4.97;;;3.65;;
55706;SDS011;41608;45.384;20.394;2023-04-25T10:18:08;5.70;;;3.75;;
55706;SDS011;41608;45.384;20.394;2023-04-25T10:20:35;4.00;;;2.85;;
55706;SDS011;41608;45.384;20.394;2023-04-25T10:23:11;3.72;;;3.13;;
55706;SDS011;41608;45.384;20.394;2023-04-25T10:25:38;5.63;;;3.80;;
55706;SDS011;41608;45.384;20.394;2023-04-25T10:28:05;7.13;;;4.32;;
55706;SDS011;41608;45.384;20.394;2023-04-25T10:30:31;7.35;;;3.28;;
55706;SDS011;41608;45.384;20.394;2023-04-25T10:32:58;5.20;;;3.70;;
55706;SDS011;41608;45.384;20.394;2023-04-25T10:38:04;4.78;;;2.38;;
55706;SDS011;41608;45.384;20.394;2023-04-25T10:40:33;3.92;;;2.65;;
55706;SDS011;41608;45.384;20.394;2023-04-25T10:45:53;6.10;;;3.03;;
55706;SDS011;41608;45.384;20.394;2023-04-25T10:48:28;5.15;;;3.33;;
55706;SDS011;41608;45.384;20.394;2023-04-25T10:51:07;5.25;;;3.55;;
55706;SDS011;41608;45.384;20.394;2023-04-25T10:53:36;5.68;;;3.03;;
55706;SDS011;41608;45.384;20.394;2023-04-25T10:56:12;3.63;;;2.53;;
55706;SDS011;41608;45.384;20.394;2023-04-25T10:58:43;5.72;;;3.45;;
55706;SDS011;41608;45.384;20.394;2023-04-25T11:01:09;8.20;;;3.53;;
55706;SDS011;41608;45.384;20.394;2023-04-25T11:03:39;4.38;;;3.70;;
55706;SDS011;41608;45.384;20.394;2023-04-25T11:06:07;5.25;;;3.25;;
55706;SDS011;41608;45.384;20.394;2023-04-25T11:08:38;4.55;;;3.38;;
55706;SDS011;41608;45.384;20.394;2023-04-25T11:11:08;5.55;;;3.05;;
55706;SDS011;41608;45.384;20.394;2023-04-25T11:13:35;4.10;;;2.92;;
55706;SDS011;41608;45.384;20.394;2023-04-25T11:16:01;4.63;;;3.47;;
55706;SDS011;41608;45.384;20.394;2023-04-25T11:18:27;4.63;;;3.45;;
55706;SDS011;41608;45.384;20.394;2023-04-25T11:20:53;3.80;;;3.20;;
55706;SDS011;41608;45.384;20.394;2023-04-25T11:23:19;3.90;;;3.10;;
55706;SDS011;41608;45.384;20.394;2023-04-25T11:25:45;7.18;;;3.20;;
55706;SDS011;41608;45.384;20.394;2023-04-25T11:28:12;4.88;;;3.55;;
55706;SDS011;41608;45.384;20.394;2023-04-25T11:30:38;4.85;;;3.33;;
55706;SDS011;41608;45.384;20.394;2023-04-25T11:33:05;3.75;;;3.00;;
55706;SDS011;41608;45.384;20.394;2023-04-25T11:35:36;6.25;;;4.30;;
55706;SDS011;41608;45.384;20.394;2023-04-25T11:38:05;8.55;;;4.53;;
55706;SDS011;41608;45.384;20.394;2023-04-25T11:40:32;4.63;;;3.45;;
55706;SDS011;41608;45.384;20.394;2023-04-25T11:42:59;5.97;;;3.90;;
55706;SDS011;41608;45.384;20.394;2023-04-25T11:45:26;4.55;;;3.80;;
55706;SDS011;41608;45.384;20.394;2023-04-25T11:47:58;6.47;;;4.53;;
55706;SDS011;41608;45.384;20.394;2023-04-25T11:50:24;7.70;;;4.20;;
55706;SDS011;41608;45.384;20.394;2023-04-25T11:52:55;5.10;;;3.80;;
55706;SDS011;41608;45.384;20.394;2023-04-25T11:55:22;5.63;;;3.53;;
55706;SDS011;41608;45.384;20.394;2023-04-25T11:57:48;4.50;;;3.47;;
55706;SDS011;41608;45.384;20.394;2023-04-25T12:00:19;5.57;;;2.60;;
55706;SDS011;41608;45.384;20.394;2023-04-25T12:02:46;7.95;;;2.85;;
55706;SDS011;41608;45.384;20.394;2023-04-25T12:05:14;4.90;;;3.15;;
55706;SDS011;41608;45.384;20.394;2023-04-25T12:07:43;4.25;;;2.28;;
55706;SDS011;41608;45.384;20.394;2023-04-25T12:10:16;5.38;;;2.78;;
55706;SDS011;41608;45.384;20.394;2023-04-25T12:15:12;6.72;;;2.97;;
55706;SDS011;41608;45.384;20.394;2023-04-25T12:17:40;5.57;;;3.22;;
55706;SDS011;41608;45.384;20.394;2023-04-25T12:20:10;5.93;;;3.45;;
55706;SDS011;41608;45.384;20.394;2023-04-25T12:22:36;5.45;;;3.03;;
55706;SDS011;41608;45.384;20.394;2023-04-25T12:25:03;5.75;;;3.33;;
55706;SDS011;41608;45.384;20.394;2023-04-25T12:27:32;4.78;;;3.35;;
55706;SDS011;41608;45.384;20.394;2023-04-25T12:29:59;4.63;;;3.35;;
55706;SDS011;41608;45.384;20.394;2023-04-25T12:32:42;4.55;;;3.08;;
55706;SDS011;41608;45.384;20.394;2023-04-25T12:35:08;4.82;;;3.30;;
55706;SDS011;41608;45.384;20.394;2023-04-25T12:37:34;6.50;;;3.45;;
55706;SDS011;41608;45.384;20.394;2023-04-25T12:40:01;5.68;;;3.25;;
55706;SDS011;41608;45.384;20.394;2023-04-25T12:42:28;6.55;;;4.22;;
55706;SDS011;41608;45.384;20.394;2023-04-25T12:44:54;7.30;;;3.40;;
55706;SDS011;41608;45.384;20.394;2023-04-25T12:47:20;5.38;;;2.83;;
55706;SDS011;41608;45.384;20.394;2023-04-25T12:49:46;5.90;;;3.25;;
55706;SDS011;41608;45.384;20.394;2023-04-25T12:52:12;4.53;;;2.90;;
55706;SDS011;41608;45.384;20.394;2023-04-25T12:54:38;4.22;;;2.58;;
55706;SDS011;41608;45.384;20.394;2023-04-25T12:57:05;5.05;;;3.72;;
55706;SDS011;41608;45.384;20.394;2023-04-25T12:59:31;4.88;;;2.97;;
55706;SDS011;41608;45.384;20.394;2023-04-25T13:01:57;6.53;;;2.20;;
55706;SDS011;41608;45.384;20.394;2023-04-25T13:04:23;4.13;;;2.50;;
55706;SDS011;41608;45.384;20.394;2023-04-25T13:06:50;4.43;;;2.47;;
55706;SDS011;41608;45.384;20.394;2023-04-25T13:09:16;5.43;;;2.20;;
55706;SDS011;41608;45.384;20.394;2023-04-25T13:11:42;4.57;;;2.33;;
55706;SDS011;41608;45.384;20.394;2023-04-25T13:14:08;4.38;;;2.72;;
55706;SDS011;41608;45.384;20.394;2023-04-25T13:16:38;3.38;;;2.03;;
55706;SDS011;41608;45.384;20.394;2023-04-25T13:19:06;5.95;;;2.42;;
55706;SDS011;41608;45.384;20.394;2023-04-25T13:21:36;4.28;;;2.60;;
55706;SDS011;41608;45.384;20.394;2023-04-25T13:24:02;5.57;;;2.50;;
55706;SDS011;41608;45.384;20.394;2023-04-25T13:26:28;5.10;;;2.47;;
55706;SDS011;41608;45.384;20.394;2023-04-25T13:28:55;4.78;;;2.53;;
55706;SDS011;41608;45.384;20.394;2023-04-25T13:31:22;3.60;;;2.70;;
55706;SDS011;41608;45.384;20.394;2023-04-25T13:33:48;4.97;;;3.20;;
55706;SDS011;41608;45.384;20.394;2023-04-25T13:36:14;4.07;;;2.88;;
55706;SDS011;41608;45.384;20.394;2023-04-25T13:38:40;4.07;;;2.97;;
55706;SDS011;41608;45.384;20.394;2023-04-25T13:41:08;4.53;;;3.20;;
55706;SDS011;41608;45.384;20.394;2023-04-25T13:43:42;6.03;;;2.70;;
55706;SDS011;41608;45.384;20.394;2023-04-25T13:46:08;5.30;;;2.80;;
55706;SDS011;41608;45.384;20.394;2023-04-25T13:48:38;5.53;;;2.72;;
55706;SDS011;41608;45.384;20.394;2023-04-25T13:51:10;5.20;;;3.30;;
55706;SDS011;41608;45.384;20.394;2023-04-25T13:53:36;4.18;;;2.70;;
55706;SDS011;41608;45.384;20.394;2023-04-25T13:56:03;9.75;;;3.47;;
55706;SDS011;41608;45.384;20.394;2023-04-25T13:58:30;6.35;;;3.45;;
55706;SDS011;41608;45.384;20.394;2023-04-25T14:00:57;6.53;;;3.03;;
55706;SDS011;41608;45.384;20.394;2023-04-25T14:03:23;4.00;;;2.95;;
55706;SDS011;41608;45.384;20.394;2023-04-25T14:05:49;4.68;;;2.88;;
55706;SDS011;41608;45.384;20.394;2023-04-25T14:08:16;4.13;;;2.92;;
55706;SDS011;41608;45.384;20.394;2023-04-25T14:10:44;7.38;;;4.10;;
55706;SDS011;41608;45.384;20.394;2023-04-25T14:13:10;5.70;;;4.20;;
55706;SDS011;41608;45.384;20.394;2023-04-25T14:15:36;4.75;;;3.28;;
55706;SDS011;41608;45.384;20.394;2023-04-25T14:18:03;6.55;;;3.25;;
55706;SDS011;41608;45.384;20.394;2023-04-25T14:20:29;4.68;;;2.58;;
55706;SDS011;41608;45.384;20.394;2023-04-25T14:22:55;4.60;;;3.28;;
55706;SDS011;41608;45.384;20.394;2023-04-25T14:25:23;5.18;;;3.15;;
55706;SDS011;41608;45.384;20.394;2023-04-25T14:27:52;4.32;;;2.88;;
55706;SDS011;41608;45.384;20.394;2023-04-25T14:30:19;6.25;;;3.08;;
55706;SDS011;41608;45.384;20.394;2023-04-25T14:32:45;9.98;;;3.35;;